sensor_id;sensor_type;location;lat;lon;timestamp;temperature;humidity
13589;DHT22;6865;52.552;13.434;2022-09-14T00:00:57;14.10;99.90
13589;DHT22;6865;52.552;13.434;2022-09-14T00:03:44;14.10;99.90
13589;DHT22;6865;52.552;13.434;2022-09-14T00:06:12;14.10;99.90
13589;DHT22;6865;52.552;13.434;2022-09-14T00:08:40;14.10;99.90
13589;DHT22;6865;52.552;13.434;2022-09-14T00:11:10;14.00;99.90
13589;DHT22;6865;52.552;13.434;2022-09-14T00:13:42;14.00;99.90
13589;DHT22;6865;52.552;13.434;2022-09-14T00:16:15;14.00;99.90
13589;DHT22;6865;52.552;13.434;2022-09-14T00:18:42;14.10;99.90
13589;DHT22;6865;52.552;13.434;2022-09-14T00:21:11;14.10;99.90
13589;DHT22;6865;52.552;13.434;2022-09-14T00:23:39;14.10;99.90
13589;DHT22;6865;52.552;13.434;2022-09-14T00:26:09;14.10;99.90
13589;DHT22;6865;52.552;13.434;2022-09-14T00:28:41;14.10;99.90
13589;DHT22;6865;52.552;13.434;2022-09-14T00:31:08;14.00;99.90
13589;DHT22;6865;52.552;13.434;2022-09-14T00:33:36;14.00;99.90
13589;DHT22;6865;52.552;13.434;2022-09-14T00:36:12;14.10;99.90
13589;DHT22;6865;52.552;13.434;2022-09-14T00:38:40;14.10;99.90
13589;DHT22;6865;52.552;13.434;2022-09-14T00:41:11;13.90;99.90
13589;DHT22;6865;52.552;13.434;2022-09-14T00:44:06;13.90;99.90
13589;DHT22;6865;52.552;13.434;2022-09-14T00:46:44;13.90;99.90
13589;DHT22;6865;52.552;13.434;2022-09-14T00:49:16;13.80;99.90
13589;DHT22;6865;52.552;13.434;2022-09-14T00:51:54;13.80;99.90
13589;DHT22;6865;52.552;13.434;2022-09-14T00:54:24;13.80;99.90
13589;DHT22;6865;52.552;13.434;2022-09-14T00:56:51;13.80;99.90
13589;DHT22;6865;52.552;13.434;2022-09-14T00:59:24;13.80;99.90
13589;DHT22;6865;52.552;13.434;2022-09-14T01:01:52;13.80;99.90
13589;DHT22;6865;52.552;13.434;2022-09-14T01:04:19;13.90;99.90
13589;DHT22;6865;52.552;13.434;2022-09-14T01:13:12;13.70;99.90
13589;DHT22;6865;52.552;13.434;2022-09-14T01:16:43;13.70;99.90
13589;DHT22;6865;52.552;13.434;2022-09-14T01:18:58;13.70;99.90
13589;DHT22;6865;52.552;13.434;2022-09-14T01:21:27;13.70;99.90
13589;DHT22;6865;52.552;13.434;2022-09-14T01:29:39;13.60;99.90
13589;DHT22;6865;52.552;13.434;2022-09-14T01:32:19;13.60;99.90
13589;DHT22;6865;52.552;13.434;2022-09-14T01:34:55;13.60;99.90
13589;DHT22;6865;52.552;13.434;2022-09-14T01:40:21;13.40;99.90
13589;DHT22;6865;52.552;13.434;2022-09-14T01:42:55;13.60;99.90
13589;DHT22;6865;52.552;13.434;2022-09-14T01:45:23;13.60;99.90
13589;DHT22;6865;52.552;13.434;2022-09-14T01:48:04;13.50;99.90
13589;DHT22;6865;52.552;13.434;2022-09-14T01:50:52;13.50;99.90
13589;DHT22;6865;52.552;13.434;2022-09-14T01:53:29;13.50;99.90
13589;DHT22;6865;52.552;13.434;2022-09-14T01:58:44;13.40;99.90
13589;DHT22;6865;52.552;13.434;2022-09-14T02:01:16;13.40;99.90
13589;DHT22;6865;52.552;13.434;2022-09-14T02:03:50;13.40;99.90
13589;DHT22;6865;52.552;13.434;2022-09-14T02:06:35;13.30;99.90
13589;DHT22;6865;52.552;13.434;2022-09-14T02:09:03;13.40;99.90
13589;DHT22;6865;52.552;13.434;2022-09-14T02:11:30;13.40;99.90
13589;DHT22;6865;52.552;13.434;2022-09-14T02:13:57;13.40;99.90
13589;DHT22;6865;52.552;13.434;2022-09-14T02:16:24;13.40;99.90
13589;DHT22;6865;52.552;13.434;2022-09-14T02:18:51;13.40;99.90
13589;DHT22;6865;52.552;13.434;2022-09-14T02:21:25;13.40;99.90
13589;DHT22;6865;52.552;13.434;2022-09-14T02:23:52;13.40;99.90
13589;DHT22;6865;52.552;13.434;2022-09-14T02:26:21;13.30;99.90
13589;DHT22;6865;52.552;13.434;2022-09-14T02:28:48;13.40;99.90
13589;DHT22;6865;52.552;13.434;2022-09-14T02:33:55;13.40;99.90
13589;DHT22;6865;52.552;13.434;2022-09-14T02:42:52;13.30;99.90
13589;DHT22;6865;52.552;13.434;2022-09-14T02:45:27;13.30;99.90
13589;DHT22;6865;52.552;13.434;2022-09-14T02:48:12;13.30;99.90
13589;DHT22;6865;52.552;13.434;2022-09-14T02:54:03;13.30;99.90
13589;DHT22;6865;52.552;13.434;2022-09-14T02:56:32;13.30;99.90
13589;DHT22;6865;52.552;13.434;2022-09-14T02:58:59;13.30;99.90
13589;DHT22;6865;52.552;13.434;2022-09-14T03:01:26;13.30;99.90
13589;DHT22;6865;52.552;13.434;2022-09-14T03:03:53;13.30;99.90
13589;DHT22;6865;52.552;13.434;2022-09-14T03:06:20;13.30;99.90
13589;DHT22;6865;52.552;13.434;2022-09-14T03:08:47;13.20;99.90
13589;DHT22;6865;52.552;13.434;2022-09-14T03:11:14;13.20;99.90
13589;DHT22;6865;52.552;13.434;2022-09-14T03:13:41;13.30;99.90
13589;DHT22;6865;52.552;13.434;2022-09-14T03:16:13;13.30;99.90
13589;DHT22;6865;52.552;13.434;2022-09-14T03:18:40;13.20;99.90
13589;DHT22;6865;52.552;13.434;2022-09-14T03:21:12;13.20;99.90
13589;DHT22;6865;52.552;13.434;2022-09-14T03:23:47;12.80;99.90
13589;DHT22;6865;52.552;13.434;2022-09-14T03:26:15;13.20;99.90
13589;DHT22;6865;52.552;13.434;2022-09-14T03:28:43;13.20;99.90
13589;DHT22;6865;52.552;13.434;2022-09-14T03:31:11;13.20;99.90
13589;DHT22;6865;52.552;13.434;2022-09-14T03:33:38;13.20;99.90
13589;DHT22;6865;52.552;13.434;2022-09-14T03:36:13;13.20;99.90
13589;DHT22;6865;52.552;13.434;2022-09-14T03:38:44;13.20;99.90
13589;DHT22;6865;52.552;13.434;2022-09-14T03:41:12;13.10;99.90
13589;DHT22;6865;52.552;13.434;2022-09-14T03:43:39;13.20;99.90
13589;DHT22;6865;52.552;13.434;2022-09-14T03:46:12;13.10;99.90
13589;DHT22;6865;52.552;13.434;2022-09-14T03:48:39;13.10;99.90
13589;DHT22;6865;52.552;13.434;2022-09-14T03:51:07;13.20;99.90
13589;DHT22;6865;52.552;13.434;2022-09-14T03:53:35;13.10;99.90
13589;DHT22;6865;52.552;13.434;2022-09-14T03:56:09;13.20;99.90
13589;DHT22;6865;52.552;13.434;2022-09-14T03:58:36;13.20;99.90
13589;DHT22;6865;52.552;13.434;2022-09-14T04:01:05;13.10;99.90
13589;DHT22;6865;52.552;13.434;2022-09-14T04:03:32;13.20;99.90
13589;DHT22;6865;52.552;13.434;2022-09-14T04:05:59;13.10;99.90
13589;DHT22;6865;52.552;13.434;2022-09-14T04:08:26;13.10;99.90
13589;DHT22;6865;52.552;13.434;2022-09-14T04:10:53;13.10;99.90
13589;DHT22;6865;52.552;13.434;2022-09-14T04:13:19;13.10;99.90
13589;DHT22;6865;52.552;13.434;2022-09-14T04:15:55;13.10;99.90
13589;DHT22;6865;52.552;13.434;2022-09-14T04:18:22;13.10;99.90
13589;DHT22;6865;52.552;13.434;2022-09-14T04:20:54;13.20;99.90
13589;DHT22;6865;52.552;13.434;2022-09-14T04:23:20;13.20;99.90
13589;DHT22;6865;52.552;13.434;2022-09-14T04:25:48;13.10;99.90
13589;DHT22;6865;52.552;13.434;2022-09-14T04:28:14;13.10;99.90
13589;DHT22;6865;52.552;13.434;2022-09-14T04:30:56;13.20;99.90
13589;DHT22;6865;52.552;13.434;2022-09-14T04:33:24;13.20;99.90
13589;DHT22;6865;52.552;13.434;2022-09-14T04:36:20;13.30;99.90
13589;DHT22;6865;52.552;13.434;2022-09-14T04:38:45;13.30;99.90
13589;DHT22;6865;52.552;13.434;2022-09-14T04:41:14;13.30;99.90
13589;DHT22;6865;52.552;13.434;2022-09-14T04:43:43;13.50;99.90
13589;DHT22;6865;52.552;13.434;2022-09-14T04:46:12;13.60;99.90
13589;DHT22;6865;52.552;13.434;2022-09-14T04:48:40;13.50;99.90
13589;DHT22;6865;52.552;13.434;2022-09-14T04:51:09;13.50;99.90
13589;DHT22;6865;52.552;13.434;2022-09-14T04:53:37;13.50;99.90
13589;DHT22;6865;52.552;13.434;2022-09-14T04:56:06;13.50;99.90
13589;DHT22;6865;52.552;13.434;2022-09-14T04:58:34;13.50;99.90
13589;DHT22;6865;52.552;13.434;2022-09-14T05:01:03;13.50;99.90
13589;DHT22;6865;52.552;13.434;2022-09-14T05:03:30;13.50;99.90
13589;DHT22;6865;52.552;13.434;2022-09-14T05:06:01;13.60;99.90
13589;DHT22;6865;52.552;13.434;2022-09-14T05:08:28;13.60;99.90
13589;DHT22;6865;52.552;13.434;2022-09-14T05:10:55;13.60;99.90
13589;DHT22;6865;52.552;13.434;2022-09-14T05:13:22;13.60;99.90
13589;DHT22;6865;52.552;13.434;2022-09-14T05:15:49;13.60;99.90
13589;DHT22;6865;52.552;13.434;2022-09-14T05:18:17;13.60;99.90
13589;DHT22;6865;52.552;13.434;2022-09-14T05:20:44;13.60;99.90
13589;DHT22;6865;52.552;13.434;2022-09-14T05:23:10;13.60;99.90
13589;DHT22;6865;52.552;13.434;2022-09-14T05:25:37;13.60;99.90
13589;DHT22;6865;52.552;13.434;2022-09-14T05:28:04;13.60;99.90
13589;DHT22;6865;52.552;13.434;2022-09-14T05:30:30;13.60;99.90
13589;DHT22;6865;52.552;13.434;2022-09-14T05:32:57;13.60;99.90
13589;DHT22;6865;52.552;13.434;2022-09-14T05:35:23;13.70;99.90
13589;DHT22;6865;52.552;13.434;2022-09-14T05:37:50;13.70;99.90
13589;DHT22;6865;52.552;13.434;2022-09-14T05:40:16;13.70;99.90
13589;DHT22;6865;52.552;13.434;2022-09-14T05:42:43;13.70;99.90
13589;DHT22;6865;52.552;13.434;2022-09-14T05:45:10;13.70;99.90
13589;DHT22;6865;52.552;13.434;2022-09-14T05:47:36;13.70;99.90
13589;DHT22;6865;52.552;13.434;2022-09-14T05:50:05;13.80;99.90
13589;DHT22;6865;52.552;13.434;2022-09-14T05:52:33;13.70;99.90
13589;DHT22;6865;52.552;13.434;2022-09-14T05:55:00;13.70;99.90
13589;DHT22;6865;52.552;13.434;2022-09-14T05:57:27;13.50;99.90
13589;DHT22;6865;52.552;13.434;2022-09-14T05:59:53;13.70;99.90
13589;DHT22;6865;52.552;13.434;2022-09-14T06:02:20;13.60;99.90
13589;DHT22;6865;52.552;13.434;2022-09-14T06:04:46;13.60;99.90
13589;DHT22;6865;52.552;13.434;2022-09-14T06:07:13;13.60;99.90
13589;DHT22;6865;52.552;13.434;2022-09-14T06:09:44;13.60;99.90
13589;DHT22;6865;52.552;13.434;2022-09-14T06:12:11;13.60;99.90
13589;DHT22;6865;52.552;13.434;2022-09-14T06:14:39;13.60;99.90
13589;DHT22;6865;52.552;13.434;2022-09-14T06:17:06;13.60;99.90
13589;DHT22;6865;52.552;13.434;2022-09-14T06:19:33;13.70;99.90
13589;DHT22;6865;52.552;13.434;2022-09-14T06:21:59;13.80;99.90
13589;DHT22;6865;52.552;13.434;2022-09-14T06:24:26;13.80;99.90
13589;DHT22;6865;52.552;13.434;2022-09-14T06:26:52;13.90;99.90
13589;DHT22;6865;52.552;13.434;2022-09-14T06:29:19;14.00;99.90
13589;DHT22;6865;52.552;13.434;2022-09-14T06:31:46;14.10;99.90
13589;DHT22;6865;52.552;13.434;2022-09-14T06:34:12;14.10;99.90
13589;DHT22;6865;52.552;13.434;2022-09-14T06:36:39;14.20;99.90
13589;DHT22;6865;52.552;13.434;2022-09-14T06:39:05;14.20;99.90
13589;DHT22;6865;52.552;13.434;2022-09-14T06:41:32;14.20;99.90
13589;DHT22;6865;52.552;13.434;2022-09-14T06:43:59;14.30;99.90
13589;DHT22;6865;52.552;13.434;2022-09-14T06:46:29;14.40;99.90
13589;DHT22;6865;52.552;13.434;2022-09-14T06:49:06;14.60;99.90
13589;DHT22;6865;52.552;13.434;2022-09-14T06:51:41;14.80;99.90
13589;DHT22;6865;52.552;13.434;2022-09-14T06:54:09;14.80;99.90
13589;DHT22;6865;52.552;13.434;2022-09-14T06:56:39;15.00;99.90
13589;DHT22;6865;52.552;13.434;2022-09-14T06:59:07;15.10;99.90
13589;DHT22;6865;52.552;13.434;2022-09-14T07:01:34;15.00;99.90
13589;DHT22;6865;52.552;13.434;2022-09-14T07:04:00;15.20;99.90
13589;DHT22;6865;52.552;13.434;2022-09-14T07:06:29;15.40;99.90
13589;DHT22;6865;52.552;13.434;2022-09-14T07:08:56;15.40;99.90
13589;DHT22;6865;52.552;13.434;2022-09-14T07:11:26;15.40;99.90
13589;DHT22;6865;52.552;13.434;2022-09-14T07:13:54;15.40;99.90
13589;DHT22;6865;52.552;13.434;2022-09-14T07:16:22;15.40;99.90
13589;DHT22;6865;52.552;13.434;2022-09-14T07:19:00;15.60;99.90
13589;DHT22;6865;52.552;13.434;2022-09-14T07:21:31;15.60;99.90
13589;DHT22;6865;52.552;13.434;2022-09-14T07:23:58;15.60;99.90
13589;DHT22;6865;52.552;13.434;2022-09-14T07:26:43;15.40;99.90
13589;DHT22;6865;52.552;13.434;2022-09-14T07:29:12;15.30;99.90
13589;DHT22;6865;52.552;13.434;2022-09-14T07:31:42;15.20;99.90
13589;DHT22;6865;52.552;13.434;2022-09-14T07:34:10;15.50;99.90
13589;DHT22;6865;52.552;13.434;2022-09-14T07:36:37;15.60;99.90
13589;DHT22;6865;52.552;13.434;2022-09-14T07:39:06;15.60;99.90
13589;DHT22;6865;52.552;13.434;2022-09-14T07:41:34;15.70;99.90
13589;DHT22;6865;52.552;13.434;2022-09-14T07:44:03;15.80;99.90
13589;DHT22;6865;52.552;13.434;2022-09-14T07:46:31;16.00;99.90
13589;DHT22;6865;52.552;13.434;2022-09-14T07:49:00;16.20;99.90
13589;DHT22;6865;52.552;13.434;2022-09-14T07:51:29;16.40;99.90
13589;DHT22;6865;52.552;13.434;2022-09-14T07:53:56;16.70;99.90
13589;DHT22;6865;52.552;13.434;2022-09-14T07:56:23;17.00;99.90
13589;DHT22;6865;52.552;13.434;2022-09-14T07:58:57;17.10;99.90
13589;DHT22;6865;52.552;13.434;2022-09-14T08:01:44;17.30;99.90
13589;DHT22;6865;52.552;13.434;2022-09-14T08:04:12;17.30;99.90
13589;DHT22;6865;52.552;13.434;2022-09-14T08:06:38;17.30;99.90
13589;DHT22;6865;52.552;13.434;2022-09-14T08:09:06;17.20;99.90
13589;DHT22;6865;52.552;13.434;2022-09-14T08:11:35;17.20;99.90
13589;DHT22;6865;52.552;13.434;2022-09-14T08:14:05;17.30;99.90
13589;DHT22;6865;52.552;13.434;2022-09-14T08:16:33;17.30;99.90
13589;DHT22;6865;52.552;13.434;2022-09-14T08:19:03;17.40;99.90
13589;DHT22;6865;52.552;13.434;2022-09-14T08:21:31;17.40;99.90
13589;DHT22;6865;52.552;13.434;2022-09-14T08:23:58;17.40;99.90
13589;DHT22;6865;52.552;13.434;2022-09-14T08:26:28;17.60;99.90
13589;DHT22;6865;52.552;13.434;2022-09-14T08:28:55;17.70;99.90
13589;DHT22;6865;52.552;13.434;2022-09-14T08:31:24;17.70;99.90
13589;DHT22;6865;52.552;13.434;2022-09-14T08:33:56;17.80;99.90
13589;DHT22;6865;52.552;13.434;2022-09-14T08:36:26;17.90;99.90
13589;DHT22;6865;52.552;13.434;2022-09-14T08:38:52;17.90;99.90
13589;DHT22;6865;52.552;13.434;2022-09-14T08:41:30;18.10;99.90
13589;DHT22;6865;52.552;13.434;2022-09-14T08:44:01;18.30;99.90
13589;DHT22;6865;52.552;13.434;2022-09-14T08:46:34;18.40;99.90
13589;DHT22;6865;52.552;13.434;2022-09-14T08:49:08;18.60;99.90
13589;DHT22;6865;52.552;13.434;2022-09-14T08:51:36;18.70;99.90
13589;DHT22;6865;52.552;13.434;2022-09-14T08:54:03;18.50;99.90
13589;DHT22;6865;52.552;13.434;2022-09-14T08:56:33;18.50;99.90
13589;DHT22;6865;52.552;13.434;2022-09-14T08:59:25;18.50;99.90
13589;DHT22;6865;52.552;13.434;2022-09-14T09:04:50;18.60;99.90
13589;DHT22;6865;52.552;13.434;2022-09-14T09:07:37;18.60;99.90
13589;DHT22;6865;52.552;13.434;2022-09-14T09:10:09;18.70;99.90
13589;DHT22;6865;52.552;13.434;2022-09-14T09:12:46;18.70;99.90
13589;DHT22;6865;52.552;13.434;2022-09-14T09:15:23;18.70;99.90
13589;DHT22;6865;52.552;13.434;2022-09-14T09:18:12;18.70;99.90
13589;DHT22;6865;52.552;13.434;2022-09-14T09:20:50;18.70;99.90
13589;DHT22;6865;52.552;13.434;2022-09-14T09:23:20;18.70;99.90
13589;DHT22;6865;52.552;13.434;2022-09-14T09:25:59;18.70;99.90
13589;DHT22;6865;52.552;13.434;2022-09-14T09:28:28;18.70;99.90
13589;DHT22;6865;52.552;13.434;2022-09-14T09:30:58;18.60;99.90
13589;DHT22;6865;52.552;13.434;2022-09-14T09:33:27;18.70;99.90
13589;DHT22;6865;52.552;13.434;2022-09-14T09:35:54;18.80;99.90
13589;DHT22;6865;52.552;13.434;2022-09-14T09:38:24;18.40;99.90
13589;DHT22;6865;52.552;13.434;2022-09-14T09:40:54;18.70;99.90
13589;DHT22;6865;52.552;13.434;2022-09-14T09:43:21;18.70;99.90
13589;DHT22;6865;52.552;13.434;2022-09-14T09:46:08;18.80;99.90
13589;DHT22;6865;52.552;13.434;2022-09-14T09:51:08;18.70;99.90
13589;DHT22;6865;52.552;13.434;2022-09-14T09:53:38;18.90;99.90
13589;DHT22;6865;52.552;13.434;2022-09-14T09:56:20;18.90;99.90
13589;DHT22;6865;52.552;13.434;2022-09-14T09:58:48;18.70;99.80
13589;DHT22;6865;52.552;13.434;2022-09-14T10:01:18;18.60;99.90
13589;DHT22;6865;52.552;13.434;2022-09-14T10:06:26;18.90;99.90
13589;DHT22;6865;52.552;13.434;2022-09-14T10:08:54;19.10;99.50
13589;DHT22;6865;52.552;13.434;2022-09-14T10:11:34;19.00;99.60
13589;DHT22;6865;52.552;13.434;2022-09-14T10:14:17;19.10;98.80
13589;DHT22;6865;52.552;13.434;2022-09-14T10:16:44;19.20;98.50
13589;DHT22;6865;52.552;13.434;2022-09-14T10:19:13;19.10;98.30
13589;DHT22;6865;52.552;13.434;2022-09-14T10:22:14;18.70;98.20
13589;DHT22;6865;52.552;13.434;2022-09-14T10:24:58;19.00;98.50
13589;DHT22;6865;52.552;13.434;2022-09-14T10:30:33;19.00;98.00
13589;DHT22;6865;52.552;13.434;2022-09-14T10:33:07;18.90;98.10
13589;DHT22;6865;52.552;13.434;2022-09-14T10:35:49;18.90;97.60
13589;DHT22;6865;52.552;13.434;2022-09-14T10:38:35;19.10;97.20
13589;DHT22;6865;52.552;13.434;2022-09-14T10:41:12;19.10;96.90
13589;DHT22;6865;52.552;13.434;2022-09-14T10:46:29;19.40;96.90
13589;DHT22;6865;52.552;13.434;2022-09-14T10:51:59;19.60;95.90
13589;DHT22;6865;52.552;13.434;2022-09-14T10:54:56;20.00;95.00
13589;DHT22;6865;52.552;13.434;2022-09-14T10:58:15;20.00;95.40
13589;DHT22;6865;52.552;13.434;2022-09-14T11:01:01;20.10;95.40
13589;DHT22;6865;52.552;13.434;2022-09-14T11:09:23;20.40;95.80
13589;DHT22;6865;52.552;13.434;2022-09-14T11:12:14;20.30;95.00
13589;DHT22;6865;52.552;13.434;2022-09-14T11:15:06;20.50;94.40
13589;DHT22;6865;52.552;13.434;2022-09-14T11:17:57;20.40;92.60
13589;DHT22;6865;52.552;13.434;2022-09-14T11:23:55;20.60;92.20
13589;DHT22;6865;52.552;13.434;2022-09-14T11:26:31;20.40;91.50
13589;DHT22;6865;52.552;13.434;2022-09-14T11:29:25;20.20;91.80
13589;DHT22;6865;52.552;13.434;2022-09-14T11:34:57;20.10;92.70
13589;DHT22;6865;52.552;13.434;2022-09-14T11:37:34;19.90;93.60
13589;DHT22;6865;52.552;13.434;2022-09-14T11:40:09;19.80;93.60
13589;DHT22;6865;52.552;13.434;2022-09-14T11:42:49;19.80;93.20
13589;DHT22;6865;52.552;13.434;2022-09-14T11:45:28;19.90;93.60
13589;DHT22;6865;52.552;13.434;2022-09-14T11:48:26;20.00;93.70
13589;DHT22;6865;52.552;13.434;2022-09-14T11:51:19;20.10;93.40
13589;DHT22;6865;52.552;13.434;2022-09-14T11:53:47;20.10;92.80
13589;DHT22;6865;52.552;13.434;2022-09-14T11:56:31;20.20;92.30
13589;DHT22;6865;52.552;13.434;2022-09-14T11:59:02;20.30;92.10
13589;DHT22;6865;52.552;13.434;2022-09-14T12:01:39;19.90;92.70
13589;DHT22;6865;52.552;13.434;2022-09-14T12:04:13;20.20;92.90
13589;DHT22;6865;52.552;13.434;2022-09-14T12:06:51;19.90;93.30
13589;DHT22;6865;52.552;13.434;2022-09-14T12:11:47;20.00;93.70
13589;DHT22;6865;52.552;13.434;2022-09-14T12:17:14;19.70;93.90
13589;DHT22;6865;52.552;13.434;2022-09-14T12:23:20;19.70;94.20
13589;DHT22;6865;52.552;13.434;2022-09-14T12:56:53;19.90;94.50
13589;DHT22;6865;52.552;13.434;2022-09-14T13:02:35;19.90;95.30
13589;DHT22;6865;52.552;13.434;2022-09-14T13:05:13;20.00;94.80
13589;DHT22;6865;52.552;13.434;2022-09-14T13:07:41;20.10;94.80
13589;DHT22;6865;52.552;13.434;2022-09-14T13:10:44;20.30;94.10
13589;DHT22;6865;52.552;13.434;2022-09-14T13:13:16;20.30;93.60
13589;DHT22;6865;52.552;13.434;2022-09-14T13:15:52;20.40;93.30
13589;DHT22;6865;52.552;13.434;2022-09-14T13:20:51;20.10;94.00
13589;DHT22;6865;52.552;13.434;2022-09-14T13:23:20;19.90;94.30
13589;DHT22;6865;52.552;13.434;2022-09-14T13:25:46;19.70;95.10
13589;DHT22;6865;52.552;13.434;2022-09-14T13:28:16;19.70;95.10
13589;DHT22;6865;52.552;13.434;2022-09-14T13:30:53;19.70;94.60
13589;DHT22;6865;52.552;13.434;2022-09-14T13:33:21;19.70;94.20
13589;DHT22;6865;52.552;13.434;2022-09-14T13:35:52;19.60;95.20
13589;DHT22;6865;52.552;13.434;2022-09-14T13:38:22;19.50;95.40
13589;DHT22;6865;52.552;13.434;2022-09-14T13:40:51;19.40;95.30
13589;DHT22;6865;52.552;13.434;2022-09-14T13:43:20;19.50;94.90
13589;DHT22;6865;52.552;13.434;2022-09-14T13:45:49;19.60;94.80
13589;DHT22;6865;52.552;13.434;2022-09-14T13:48:24;19.70;94.40
13589;DHT22;6865;52.552;13.434;2022-09-14T13:50:51;19.60;95.20
13589;DHT22;6865;52.552;13.434;2022-09-14T13:53:41;19.60;95.30
13589;DHT22;6865;52.552;13.434;2022-09-14T13:56:34;19.70;95.00
13589;DHT22;6865;52.552;13.434;2022-09-14T14:01:58;19.80;94.90
13589;DHT22;6865;52.552;13.434;2022-09-14T14:07:03;19.90;94.60
13589;DHT22;6865;52.552;13.434;2022-09-14T14:09:47;19.80;94.60
13589;DHT22;6865;52.552;13.434;2022-09-14T14:12:33;19.80;94.50
13589;DHT22;6865;52.552;13.434;2022-09-14T14:17:37;19.70;94.80
13589;DHT22;6865;52.552;13.434;2022-09-14T14:23:17;19.70;94.70
13589;DHT22;6865;52.552;13.434;2022-09-14T14:25:53;19.70;94.90
13589;DHT22;6865;52.552;13.434;2022-09-14T14:28:31;19.70;94.20
13589;DHT22;6865;52.552;13.434;2022-09-14T14:30:59;19.60;94.10
13589;DHT22;6865;52.552;13.434;2022-09-14T14:33:34;19.50;94.20
13589;DHT22;6865;52.552;13.434;2022-09-14T14:36:02;19.40;94.40
13589;DHT22;6865;52.552;13.434;2022-09-14T14:38:34;19.30;94.60
13589;DHT22;6865;52.552;13.434;2022-09-14T14:41:02;19.20;94.70
13589;DHT22;6865;52.552;13.434;2022-09-14T14:43:30;19.10;94.90
13589;DHT22;6865;52.552;13.434;2022-09-14T14:46:00;18.90;94.90
13589;DHT22;6865;52.552;13.434;2022-09-14T14:48:28;18.90;95.10
13589;DHT22;6865;52.552;13.434;2022-09-14T14:50:55;18.70;95.20
13589;DHT22;6865;52.552;13.434;2022-09-14T14:53:23;18.80;94.80
13589;DHT22;6865;52.552;13.434;2022-09-14T14:55:51;18.90;94.60
13589;DHT22;6865;52.552;13.434;2022-09-14T14:58:19;19.00;94.60
13589;DHT22;6865;52.552;13.434;2022-09-14T15:00:46;19.00;94.50
13589;DHT22;6865;52.552;13.434;2022-09-14T15:03:13;19.00;94.60
13589;DHT22;6865;52.552;13.434;2022-09-14T15:05:42;19.00;95.00
13589;DHT22;6865;52.552;13.434;2022-09-14T15:08:15;18.90;94.70
13589;DHT22;6865;52.552;13.434;2022-09-14T15:10:42;18.90;95.00
13589;DHT22;6865;52.552;13.434;2022-09-14T15:13:10;18.90;94.90
13589;DHT22;6865;52.552;13.434;2022-09-14T15:15:39;18.80;95.30
13589;DHT22;6865;52.552;13.434;2022-09-14T15:18:09;18.70;94.80
13589;DHT22;6865;52.552;13.434;2022-09-14T15:20:36;18.70;95.20
13589;DHT22;6865;52.552;13.434;2022-09-14T15:23:04;18.70;94.80
13589;DHT22;6865;52.552;13.434;2022-09-14T15:25:31;18.70;95.00
13589;DHT22;6865;52.552;13.434;2022-09-14T15:27:58;18.70;95.00
13589;DHT22;6865;52.552;13.434;2022-09-14T15:30:25;18.70;95.20
13589;DHT22;6865;52.552;13.434;2022-09-14T15:32:51;18.50;95.20
13589;DHT22;6865;52.552;13.434;2022-09-14T15:35:18;18.60;95.40
13589;DHT22;6865;52.552;13.434;2022-09-14T15:37:45;18.50;95.40
13589;DHT22;6865;52.552;13.434;2022-09-14T15:40:12;18.50;95.50
13589;DHT22;6865;52.552;13.434;2022-09-14T15:42:39;18.50;95.40
13589;DHT22;6865;52.552;13.434;2022-09-14T15:45:06;18.50;95.60
13589;DHT22;6865;52.552;13.434;2022-09-14T15:47:34;18.50;95.60
13589;DHT22;6865;52.552;13.434;2022-09-14T15:50:03;18.50;95.70
13589;DHT22;6865;52.552;13.434;2022-09-14T15:52:30;18.50;95.80
13589;DHT22;6865;52.552;13.434;2022-09-14T15:54:56;18.50;96.00
13589;DHT22;6865;52.552;13.434;2022-09-14T15:57:26;18.30;96.10
13589;DHT22;6865;52.552;13.434;2022-09-14T15:59:53;18.40;96.30
13589;DHT22;6865;52.552;13.434;2022-09-14T16:02:20;18.40;96.40
13589;DHT22;6865;52.552;13.434;2022-09-14T16:04:47;18.40;96.40
13589;DHT22;6865;52.552;13.434;2022-09-14T16:07:14;18.40;96.60
13589;DHT22;6865;52.552;13.434;2022-09-14T16:09:41;18.30;96.70
13589;DHT22;6865;52.552;13.434;2022-09-14T16:12:09;18.30;96.60
13589;DHT22;6865;52.552;13.434;2022-09-14T16:14:36;18.30;96.80
13589;DHT22;6865;52.552;13.434;2022-09-14T16:17:04;18.30;97.10
13589;DHT22;6865;52.552;13.434;2022-09-14T16:19:31;18.30;97.30
13589;DHT22;6865;52.552;13.434;2022-09-14T16:21:58;18.20;97.10
13589;DHT22;6865;52.552;13.434;2022-09-14T16:24:25;18.10;97.20
13589;DHT22;6865;52.552;13.434;2022-09-14T16:26:52;18.10;97.10
13589;DHT22;6865;52.552;13.434;2022-09-14T16:29:20;18.10;97.50
13589;DHT22;6865;52.552;13.434;2022-09-14T16:31:48;18.00;97.70
13589;DHT22;6865;52.552;13.434;2022-09-14T16:34:22;17.90;97.80
13589;DHT22;6865;52.552;13.434;2022-09-14T16:36:49;17.80;97.90
13589;DHT22;6865;52.552;13.434;2022-09-14T16:39:18;17.80;97.70
13589;DHT22;6865;52.552;13.434;2022-09-14T16:41:45;18.00;97.70
13589;DHT22;6865;52.552;13.434;2022-09-14T16:44:19;17.80;98.00
13589;DHT22;6865;52.552;13.434;2022-09-14T16:46:46;17.70;98.10
13589;DHT22;6865;52.552;13.434;2022-09-14T16:49:15;17.60;98.10
13589;DHT22;6865;52.552;13.434;2022-09-14T16:51:42;17.60;98.10
13589;DHT22;6865;52.552;13.434;2022-09-14T16:54:14;17.50;98.40
13589;DHT22;6865;52.552;13.434;2022-09-14T16:56:41;17.50;98.40
13589;DHT22;6865;52.552;13.434;2022-09-14T16:59:09;17.50;98.40
13589;DHT22;6865;52.552;13.434;2022-09-14T17:01:39;17.50;98.30
13589;DHT22;6865;52.552;13.434;2022-09-14T17:04:09;17.40;98.40
13589;DHT22;6865;52.552;13.434;2022-09-14T17:06:37;17.40;98.40
13589;DHT22;6865;52.552;13.434;2022-09-14T17:09:10;17.30;98.80
13589;DHT22;6865;52.552;13.434;2022-09-14T17:11:38;17.20;98.90
13589;DHT22;6865;52.552;13.434;2022-09-14T17:14:06;17.30;99.00
13589;DHT22;6865;52.552;13.434;2022-09-14T17:16:33;17.20;99.10
13589;DHT22;6865;52.552;13.434;2022-09-14T17:19:01;17.20;99.10
13589;DHT22;6865;52.552;13.434;2022-09-14T17:21:31;17.10;99.20
13589;DHT22;6865;52.552;13.434;2022-09-14T17:23:58;17.10;99.20
13589;DHT22;6865;52.552;13.434;2022-09-14T17:26:25;17.20;99.30
13589;DHT22;6865;52.552;13.434;2022-09-14T17:28:54;17.20;99.30
13589;DHT22;6865;52.552;13.434;2022-09-14T17:31:24;17.20;99.50
13589;DHT22;6865;52.552;13.434;2022-09-14T17:33:53;17.20;99.40
13589;DHT22;6865;52.552;13.434;2022-09-14T17:36:23;17.20;99.60
13589;DHT22;6865;52.552;13.434;2022-09-14T17:38:50;17.10;99.90
13589;DHT22;6865;52.552;13.434;2022-09-14T17:41:20;17.10;99.90
13589;DHT22;6865;52.552;13.434;2022-09-14T17:43:51;17.00;99.90
13589;DHT22;6865;52.552;13.434;2022-09-14T17:46:18;17.00;99.90
13589;DHT22;6865;52.552;13.434;2022-09-14T17:48:48;17.00;99.90
13589;DHT22;6865;52.552;13.434;2022-09-14T17:51:25;16.90;99.90